x

Halibut Bank (46146) Wave Buoy

9:00pm - Thu 17th Apr 2014 All times are PDT. -7 hours from GMT.

  • Sig Wave height 3.6ft
  • Peak Period 5s
  • Wind
    27mph, 34mph gusts
  • Sea Temp 48°f
  • Air Temp 47°f
  • Sea Pressure 1006.5mb
  • Halibut Bank
  • Halibut Bank

More Historic Weather Station data

Upgrade to MSW Pro to gain access to the past 30 days of data for over 8000 Wavebouys and Weather Stations around the globe.

Join Pro

Comparision Forecast

View Surf forecast
   
Thu 04/17 9:00pm 3.5ft 5s 27 34 mph 1006.5mb 48f 47f
8:00pm 3.5ft 4s 25 29 mph 1005.7mb 48f 46f
7:00pm 1.6ft 3s 31 38 mph 1004.7mb 49f 46f
6:00pm 2ft 3s 16 18 mph 1004.6mb 49f 50f
5:00pm 2ft 3s 18 22 mph 1004.7mb 49f 50f
4:00pm 2ft 3s 18 22 mph 1005.3mb 50f 51f
3:00pm 2.5ft 4s 20 25 mph 1006mb 50f 50f
2:00pm 2.5ft 4s 20 22 mph 1006.6mb 50f 50f
1:00pm 2.5ft 4s 18 22 mph 1007mb 50f 50f
12:00pm 2.5ft 4s 22 25 mph 1007.5mb 50f 49f
11:00am 2.5ft 4s 20 22 mph 1008mb 50f 49f
10:00am 2.5ft 3s 18 22 mph 1008.2mb 50f 49f
9:00am 1.6ft 3s 18 22 mph 1008.3mb 50f 49f
8:00am 1.6ft 3s 20 25 mph 1008.4mb 50f 50f
7:00am 1.3ft 3s 20 25 mph 1008.6mb 50f 50f
6:00am 1.3ft 3s 18 20 mph 1008.7mb 50f 49f
5:00am 1.3ft 3s 16 18 mph 1008.9mb 50f 49f
4:00am 1.3ft 3s 13 16 mph 1008.9mb 50f 50f
3:00am 1.6ft 3s 13 16 mph 1009.2mb 50f 50f
2:00am 1.6ft 3s 18 22 mph 1009.9mb 50f 50f
1:00am 1.6ft 4s 18 20 mph 1010.6mb 50f 50f
12:00am 1.3ft 4s 18 20 mph 1011mb 50f 50f
Wed 04/16 11:00pm 1.6ft 4s 16 18 mph 1011.6mb 50f 50f
10:00pm 1.3ft 4s 16 18 mph 1012.5mb 50f 50f
9:00pm 1.3ft 3s 16 18 mph 1012.9mb 50f 50f
8:00pm 1.6ft 3s 13 16 mph 1012.9mb 50f 50f
7:00pm 2ft 3s 18 20 mph 1013.3mb 50f 51f
6:00pm 2ft 3s 20 22 mph 1013.7mb 51f 51f
5:00pm 2ft 4s 18 22 mph 1014.2mb 51f 51f
4:00pm 2ft 4s 18 22 mph 1014.8mb 51f 50f
3:00pm 2ft 4s 20 25 mph 1015.1mb 51f 50f
2:00pm 2ft 4s 20 22 mph 1015.5mb 51f 49f
1:00pm 2.5ft 4s 20 25 mph 1015.7mb 51f 49f
12:00pm 2ft 4s 18 22 mph 1015.8mb 50f 49f
11:00am 1.6ft 4s 18 22 mph 1015.9mb 50f 48f
10:00am 1.3ft 3s 18 20 mph 1015.9mb 50f 48f
9:00am 1.3ft 4s 18 20 mph 1015.8mb 50f 48f
8:00am 1.3ft 3s 18 20 mph 1015.6mb 50f 47f
7:00am 1.3ft 3s 16 20 mph 1015.6mb 50f 47f
6:00am 1.3ft 3s 16 18 mph 1015.6mb 50f 47f
5:00am 1ft 3s 16 18 mph 1015.6mb 50f 47f
4:00am 1ft 3s 16 18 mph 1016mb 50f 48f
3:00am 1ft 3s 13 18 mph 1016.1mb 50f 48f
2:00am 1.3ft 3s 13 16 mph 1016.5mb 51f 48f
1:00am 1.3ft 3s 16 20 mph 1017mb 51f 48f
12:00am 0.7ft 3s 16 20 mph 1017.3mb 51f 48f
Tue 04/15 11:00pm 0.7ft 3s 9 11 mph 1017.5mb 50f 48f
10:00pm 0.7ft 3s 7 9 mph 1017.7mb 50f 48f
9:00pm 1.3ft 3s 11 13 mph 1017.8mb 50f 49f
8:00pm 1ft 3s 16 20 mph 1017.5mb 50f 51f
7:00pm 1.3ft 3s 16 18 mph 1017.3mb 50f 52f
6:00pm 1ft 3s 16 18 mph 1017.7mb 51f 52f
5:00pm 1.3ft 3s 11 13 mph 1018.7mb 51f 52f
4:00pm 1.3ft 3s 13 18 mph 1019.1mb 51f 51f
3:00pm 1.3ft 3s 16 18 mph 1019.4mb 51f 51f
2:00pm 0.7ft 2s 16 18 mph 1020.1mb 51f 51f
1:00pm 0.3ft 3s 13 16 mph 1020.4mb 51f 50f
12:00pm 0.3ft 6s 9 11 mph 1020.8mb 51f 51f
11:00am 0.7ft 3s 2 4 mph 1020.9mb 50f 50f
10:00am 1ft 4s 2 4 mph 1020.7mb 50f 50f
9:00am 1ft 4s 4 7 mph 1020.1mb 50f 49f
8:00am 1.6ft 4s 9
mph
1019.8mb 50f 50f
7:00am 2ft 4s 13 16 mph 1019.6mb 50f 49f
6:00am 2.5ft 4s 16 18 mph 1019.3mb 50f 50f
5:00am 2.5ft 4s 20 25 mph 1019.1mb 51f 50f
4:00am 2.5ft 4s 20 22 mph 1019.2mb 51f 50f
3:00am 2.5ft 4s 22 25 mph 1018.6mb 51f 51f
2:00am 2.5ft 4s 22 25 mph 1018.4mb 50f 51f
1:00am 2.5ft 4s 22 29 mph 1018.4mb 50f 51f
12:00am 2.5ft 4s 25 29 mph 1017.8mb 51f 52f
Mon 04/14 11:00pm 2ft 4s 20 27 mph 1017.7mb 51f 52f
10:00pm 2ft 4s 20 22 mph 1017.6mb 51f 53f
9:00pm 1ft 3s 18 22 mph 1017.1mb 51f 54f
8:00pm 0.3ft 6s 11 16 mph 1017mb 53f 54f
7:00pm 0.3ft 6s 7 11 mph 1016.5mb 55f 56f
6:00pm 0.3ft 6s 4 7 mph 1017mb 56f 54f
5:00pm 0.3ft 5s  -  2 mph 1017.1mb 55f 56f
4:00pm 0.3ft 6s 2 4 mph 1017.3mb 54f 53f
3:00pm 0.3ft 3s  -  2 mph 1018.2mb 54f 53f
2:00pm 0.3ft 5s  -  2 mph 1018.7mb 53f 53f
1:00pm 0.7ft 2s 4 7 mph 1019mb 52f 52f
12:00pm 0.7ft 3s 9
mph
1019.5mb 52f 51f
11:00am 0.3ft 2s 13 16 mph 1019.7mb 52f 51f
10:00am 0.3ft 6s 9
mph
1019.5mb 51f 50f
9:00am 0.3ft 3s 4 7 mph 1019.8mb 51f 51f
8:00am 0.3ft 14s 4
mph
1019.8mb 51f 49f
7:00am 0.3ft 13s  -  mph 1020.2mb 50f 52f
6:00am 0.3ft 3s 2
mph
1020.3mb 50f 49f